sensor_id;sensor_type;location;lat;lon;timestamp;pressure;altitude;pressure_sealevel;temperature;humidity
75555;BME280;66087;53.126;17.960;2023-07-13T00:01:59;100363.58;;;19.26;72.91
75555;BME280;66087;53.126;17.960;2023-07-13T00:04:25;100368.13;;;19.25;72.55
75555;BME280;66087;53.126;17.960;2023-07-13T00:06:52;100370.84;;;19.26;72.42
75555;BME280;66087;53.126;17.960;2023-07-13T00:09:21;100370.45;;;19.28;72.50
75555;BME280;66087;53.126;17.960;2023-07-13T00:11:52;100370.81;;;19.27;72.58
75555;BME280;66087;53.126;17.960;2023-07-13T00:14:19;100375.73;;;19.25;72.85
75555;BME280;66087;53.126;17.960;2023-07-13T00:16:47;100379.44;;;19.24;72.68
75555;BME280;66087;53.126;17.960;2023-07-13T00:19:15;100384.02;;;19.23;72.63
75555;BME280;66087;53.126;17.960;2023-07-13T00:21:42;100384.33;;;19.24;72.59
75555;BME280;66087;53.126;17.960;2023-07-13T00:24:15;100385.70;;;19.24;72.85
75555;BME280;66087;53.126;17.960;2023-07-13T00:26:44;100387.39;;;19.24;72.65
75555;BME280;66087;53.126;17.960;2023-07-13T00:29:13;100391.35;;;19.18;72.79
75555;BME280;66087;53.126;17.960;2023-07-13T00:31:42;100389.36;;;19.11;72.98
75555;BME280;66087;53.126;17.960;2023-07-13T00:34:10;100391.50;;;19.04;73.29
75555;BME280;66087;53.126;17.960;2023-07-13T00:36:36;100396.13;;;19.00;73.09
75555;BME280;66087;53.126;17.960;2023-07-13T00:39:04;100398.85;;;19.01;73.23
75555;BME280;66087;53.126;17.960;2023-07-13T00:41:31;100404.09;;;19.03;73.25
75555;BME280;66087;53.126;17.960;2023-07-13T00:43:59;100405.21;;;19.04;73.06
75555;BME280;66087;53.126;17.960;2023-07-13T00:46:29;100408.83;;;19.04;73.25
75555;BME280;66087;53.126;17.960;2023-07-13T00:48:59;100410.53;;;19.02;73.31
75555;BME280;66087;53.126;17.960;2023-07-13T00:51:31;100414.80;;;19.00;73.48
75555;BME280;66087;53.126;17.960;2023-07-13T00:54:01;100421.42;;;18.99;73.78
75555;BME280;66087;53.126;17.960;2023-07-13T00:56:31;100427.16;;;18.96;73.86
75555;BME280;66087;53.126;17.960;2023-07-13T00:59:02;100434.83;;;18.93;73.85
75555;BME280;66087;53.126;17.960;2023-07-13T01:01:30;100436.35;;;18.92;73.72
75555;BME280;66087;53.126;17.960;2023-07-13T01:03:58;100439.77;;;18.93;73.58
75555;BME280;66087;53.126;17.960;2023-07-13T01:06:26;100437.95;;;18.90;73.59
75555;BME280;66087;53.126;17.960;2023-07-13T01:08:54;100427.52;;;18.88;73.40
75555;BME280;66087;53.126;17.960;2023-07-13T01:11:26;100429.93;;;18.87;73.85
75555;BME280;66087;53.126;17.960;2023-07-13T01:13:53;100427.83;;;18.87;73.89
75555;BME280;66087;53.126;17.960;2023-07-13T01:16:27;100428.17;;;18.86;73.58
75555;BME280;66087;53.126;17.960;2023-07-13T01:18:56;100425.45;;;18.88;73.68
75555;BME280;66087;53.126;17.960;2023-07-13T01:21:26;100421.63;;;18.88;73.75
75555;BME280;66087;53.126;17.960;2023-07-13T01:23:53;100417.05;;;18.90;73.57
75555;BME280;66087;53.126;17.960;2023-07-13T01:26:23;100409.88;;;18.92;73.58
75555;BME280;66087;53.126;17.960;2023-07-13T01:28:49;100411.95;;;18.93;73.27
75555;BME280;66087;53.126;17.960;2023-07-13T01:31:16;100416.73;;;18.91;73.52
75555;BME280;66087;53.126;17.960;2023-07-13T01:33:47;100416.55;;;18.90;73.27
75555;BME280;66087;53.126;17.960;2023-07-13T01:36:13;100416.66;;;18.85;73.26
75555;BME280;66087;53.126;17.960;2023-07-13T01:38:40;100422.63;;;18.82;73.52
75555;BME280;66087;53.126;17.960;2023-07-13T01:41:08;100423.43;;;18.80;73.47
75555;BME280;66087;53.126;17.960;2023-07-13T01:43:34;100431.80;;;18.78;73.48
75555;BME280;66087;53.126;17.960;2023-07-13T01:46:03;100431.39;;;18.72;73.94
75555;BME280;66087;53.126;17.960;2023-07-13T01:48:29;100441.38;;;18.64;73.78
75555;BME280;66087;53.126;17.960;2023-07-13T01:50:56;100450.80;;;18.55;74.11
75555;BME280;66087;53.126;17.960;2023-07-13T01:53:23;100453.84;;;18.51;74.07
75555;BME280;66087;53.126;17.960;2023-07-13T01:55:50;100454.06;;;18.51;74.03
75555;BME280;66087;53.126;17.960;2023-07-13T01:58:16;100447.36;;;18.53;73.94
75555;BME280;66087;53.126;17.960;2023-07-13T02:00:43;100442.59;;;18.56;73.94
75555;BME280;66087;53.126;17.960;2023-07-13T02:03:11;100440.05;;;18.56;73.73
75555;BME280;66087;53.126;17.960;2023-07-13T02:05:38;100437.04;;;18.53;74.34
75555;BME280;66087;53.126;17.960;2023-07-13T02:08:05;100436.30;;;18.49;74.45
75555;BME280;66087;53.126;17.960;2023-07-13T02:10:32;100437.39;;;18.46;74.41
75555;BME280;66087;53.126;17.960;2023-07-13T02:12:58;100441.64;;;18.46;74.33
75555;BME280;66087;53.126;17.960;2023-07-13T02:15:25;100438.70;;;18.46;74.15
75555;BME280;66087;53.126;17.960;2023-07-13T02:17:52;100428.59;;;18.48;74.14
75555;BME280;66087;53.126;17.960;2023-07-13T02:20:19;100420.73;;;18.48;74.02
75555;BME280;66087;53.126;17.960;2023-07-13T02:22:46;100419.81;;;18.50;74.16
75555;BME280;66087;53.126;17.960;2023-07-13T02:25:12;100409.48;;;18.47;73.98
75555;BME280;66087;53.126;17.960;2023-07-13T02:27:42;100417.41;;;18.51;74.23
75555;BME280;66087;53.126;17.960;2023-07-13T02:30:12;100416.18;;;18.52;74.14
75555;BME280;66087;53.126;17.960;2023-07-13T02:32:38;100417.17;;;18.52;74.38
75555;BME280;66087;53.126;17.960;2023-07-13T02:35:05;100418.30;;;18.49;74.47
75555;BME280;66087;53.126;17.960;2023-07-13T02:37:33;100420.84;;;18.40;74.48
75555;BME280;66087;53.126;17.960;2023-07-13T02:39:59;100416.57;;;18.32;74.55
75555;BME280;66087;53.126;17.960;2023-07-13T02:42:27;100420.69;;;18.28;74.67
75555;BME280;66087;53.126;17.960;2023-07-13T02:44:54;100429.80;;;18.26;74.79
75555;BME280;66087;53.126;17.960;2023-07-13T02:47:20;100428.50;;;18.26;75.09
75555;BME280;66087;53.126;17.960;2023-07-13T02:49:48;100421.45;;;18.24;75.16
75555;BME280;66087;53.126;17.960;2023-07-13T02:52:14;100419.17;;;18.27;74.95
75555;BME280;66087;53.126;17.960;2023-07-13T02:54:41;100416.55;;;18.31;75.08
75555;BME280;66087;53.126;17.960;2023-07-13T02:57:08;100421.13;;;18.32;74.89
75555;BME280;66087;53.126;17.960;2023-07-13T02:59:35;100423.50;;;18.33;74.85
75555;BME280;66087;53.126;17.960;2023-07-13T03:02:02;100420.68;;;18.35;74.71
75555;BME280;66087;53.126;17.960;2023-07-13T03:04:29;100415.31;;;18.39;74.61
75555;BME280;66087;53.126;17.960;2023-07-13T03:06:56;100419.37;;;18.43;74.77
75555;BME280;66087;53.126;17.960;2023-07-13T03:09:26;100424.05;;;18.40;74.86
75555;BME280;66087;53.126;17.960;2023-07-13T03:11:54;100415.30;;;18.36;74.87
75555;BME280;66087;53.126;17.960;2023-07-13T03:14:27;100410.29;;;18.35;74.97
75555;BME280;66087;53.126;17.960;2023-07-13T03:16:57;100410.00;;;18.34;74.78
75555;BME280;66087;53.126;17.960;2023-07-13T03:19:25;100413.27;;;18.34;74.90
75555;BME280;66087;53.126;17.960;2023-07-13T03:21:52;100412.75;;;18.34;74.91
75555;BME280;66087;53.126;17.960;2023-07-13T03:24:18;100418.09;;;18.33;74.67
75555;BME280;66087;53.126;17.960;2023-07-13T03:26:46;100425.05;;;18.32;74.90
75555;BME280;66087;53.126;17.960;2023-07-13T03:29:13;100435.27;;;18.34;74.69
75555;BME280;66087;53.126;17.960;2023-07-13T03:31:41;100438.46;;;18.40;74.80
75555;BME280;66087;53.126;17.960;2023-07-13T03:34:08;100434.83;;;18.43;74.81
75555;BME280;66087;53.126;17.960;2023-07-13T03:36:35;100435.17;;;18.47;74.63
75555;BME280;66087;53.126;17.960;2023-07-13T03:39:05;100433.85;;;18.51;74.61
75555;BME280;66087;53.126;17.960;2023-07-13T03:41:40;100438.23;;;18.53;74.59
75555;BME280;66087;53.126;17.960;2023-07-13T03:44:06;100439.48;;;18.53;74.72
75555;BME280;66087;53.126;17.960;2023-07-13T03:46:33;100440.68;;;18.51;74.65
75555;BME280;66087;53.126;17.960;2023-07-13T03:49:01;100438.72;;;18.51;74.63
75555;BME280;66087;53.126;17.960;2023-07-13T03:51:28;100445.80;;;18.51;74.83
75555;BME280;66087;53.126;17.960;2023-07-13T03:53:54;100449.18;;;18.49;74.59
75555;BME280;66087;53.126;17.960;2023-07-13T03:56:23;100453.14;;;18.53;74.39
75555;BME280;66087;53.126;17.960;2023-07-13T03:58:51;100455.78;;;18.56;74.29
75555;BME280;66087;53.126;17.960;2023-07-13T04:01:22;100453.54;;;18.57;74.32
75555;BME280;66087;53.126;17.960;2023-07-13T04:03:49;100456.86;;;18.60;74.19
75555;BME280;66087;53.126;17.960;2023-07-13T04:06:19;100464.89;;;18.63;74.07
75555;BME280;66087;53.126;17.960;2023-07-13T04:08:49;100465.44;;;18.66;74.11
75555;BME280;66087;53.126;17.960;2023-07-13T04:11:18;100463.23;;;18.69;73.93
75555;BME280;66087;53.126;17.960;2023-07-13T04:13:46;100465.14;;;18.77;73.76
75555;BME280;66087;53.126;17.960;2023-07-13T04:16:14;100466.92;;;18.87;73.51
75555;BME280;66087;53.126;17.960;2023-07-13T04:18:42;100467.66;;;18.97;73.21
75555;BME280;66087;53.126;17.960;2023-07-13T04:21:08;100455.27;;;19.01;72.94
75555;BME280;66087;53.126;17.960;2023-07-13T04:23:37;100444.55;;;19.02;73.02
75555;BME280;66087;53.126;17.960;2023-07-13T04:26:06;100447.29;;;19.00;73.04
75555;BME280;66087;53.126;17.960;2023-07-13T04:28:53;100452.83;;;19.00;72.91
75555;BME280;66087;53.126;17.960;2023-07-13T04:31:20;100459.82;;;18.98;73.16
75555;BME280;66087;53.126;17.960;2023-07-13T04:33:49;100470.88;;;19.00;73.17
75555;BME280;66087;53.126;17.960;2023-07-13T04:36:17;100471.39;;;19.00;73.16
75555;BME280;66087;53.126;17.960;2023-07-13T04:38:43;100471.02;;;19.04;72.91
75555;BME280;66087;53.126;17.960;2023-07-13T04:41:10;100467.82;;;19.10;72.88
75555;BME280;66087;53.126;17.960;2023-07-13T04:43:38;100470.38;;;19.17;72.76
75555;BME280;66087;53.126;17.960;2023-07-13T04:46:07;100480.33;;;19.26;72.60
75555;BME280;66087;53.126;17.960;2023-07-13T04:48:35;100492.70;;;19.34;72.17
75555;BME280;66087;53.126;17.960;2023-07-13T04:51:02;100499.51;;;19.45;72.06
75555;BME280;66087;53.126;17.960;2023-07-13T04:53:30;100505.11;;;19.57;71.80
75555;BME280;66087;53.126;17.960;2023-07-13T04:55:57;100512.11;;;19.75;71.06
75555;BME280;66087;53.126;17.960;2023-07-13T04:58:25;100509.48;;;19.98;70.87
75555;BME280;66087;53.126;17.960;2023-07-13T05:00:59;100508.43;;;20.25;70.45
75555;BME280;66087;53.126;17.960;2023-07-13T05:03:29;100517.06;;;20.60;69.65
75555;BME280;66087;53.126;17.960;2023-07-13T05:06:03;100518.42;;;20.85;68.70
75555;BME280;66087;53.126;17.960;2023-07-13T05:08:32;100521.30;;;20.99;68.50
75555;BME280;66087;53.126;17.960;2023-07-13T05:11:01;100506.50;;;20.94;67.97
75555;BME280;66087;53.126;17.960;2023-07-13T05:13:28;100518.10;;;21.01;67.89
75555;BME280;66087;53.126;17.960;2023-07-13T05:15:58;100514.83;;;21.01;67.67
75555;BME280;66087;53.126;17.960;2023-07-13T05:18:27;100514.02;;;21.01;67.75
75555;BME280;66087;53.126;17.960;2023-07-13T05:21:00;100512.91;;;21.05;67.53
75555;BME280;66087;53.126;17.960;2023-07-13T05:23:31;100509.60;;;21.09;67.28
75555;BME280;66087;53.126;17.960;2023-07-13T05:26:01;100514.08;;;21.19;67.15
75555;BME280;66087;53.126;17.960;2023-07-13T05:28:31;100517.55;;;21.32;66.67
75555;BME280;66087;53.126;17.960;2023-07-13T05:30:59;100521.65;;;21.47;66.38
75555;BME280;66087;53.126;17.960;2023-07-13T05:33:30;100526.76;;;21.59;65.91
75555;BME280;66087;53.126;17.960;2023-07-13T05:35:58;100532.11;;;21.66;65.26
75555;BME280;66087;53.126;17.960;2023-07-13T05:38:27;100534.22;;;21.65;64.96
75555;BME280;66087;53.126;17.960;2023-07-13T05:41:00;100539.53;;;21.64;65.03
75555;BME280;66087;53.126;17.960;2023-07-13T05:43:28;100535.04;;;21.66;64.69
75555;BME280;66087;53.126;17.960;2023-07-13T05:45:56;100527.41;;;21.73;64.27
75555;BME280;66087;53.126;17.960;2023-07-13T05:48:23;100524.70;;;21.80;64.15
75555;BME280;66087;53.126;17.960;2023-07-13T05:50:50;100522.70;;;21.87;63.82
75555;BME280;66087;53.126;17.960;2023-07-13T05:53:17;100520.99;;;21.95;63.75
75555;BME280;66087;53.126;17.960;2023-07-13T05:55:45;100529.73;;;21.97;63.10
75555;BME280;66087;53.126;17.960;2023-07-13T05:58:22;100532.60;;;21.92;62.70
75555;BME280;66087;53.126;17.960;2023-07-13T06:01:00;100534.19;;;21.83;62.53
75555;BME280;66087;53.126;17.960;2023-07-13T06:03:33;100538.52;;;21.78;62.67
75555;BME280;66087;53.126;17.960;2023-07-13T06:06:01;100537.84;;;21.76;62.55
75555;BME280;66087;53.126;17.960;2023-07-13T06:08:47;100538.36;;;21.72;62.38
75555;BME280;66087;53.126;17.960;2023-07-13T06:11:17;100534.19;;;21.68;62.42
75555;BME280;66087;53.126;17.960;2023-07-13T06:13:44;100530.59;;;21.69;62.58
75555;BME280;66087;53.126;17.960;2023-07-13T06:16:12;100522.94;;;21.70;62.75
75555;BME280;66087;53.126;17.960;2023-07-13T06:18:40;100521.77;;;21.71;62.61
75555;BME280;66087;53.126;17.960;2023-07-13T06:21:21;100524.91;;;21.70;62.42
75555;BME280;66087;53.126;17.960;2023-07-13T06:23:49;100527.87;;;21.69;62.66
75555;BME280;66087;53.126;17.960;2023-07-13T06:26:19;100538.46;;;21.72;62.81
75555;BME280;66087;53.126;17.960;2023-07-13T06:28:46;100540.52;;;21.82;62.74
75555;BME280;66087;53.126;17.960;2023-07-13T06:31:16;100535.98;;;21.95;62.60
75555;BME280;66087;53.126;17.960;2023-07-13T06:33:44;100535.61;;;22.07;62.39
75555;BME280;66087;53.126;17.960;2023-07-13T06:36:11;100536.89;;;22.22;62.25
75555;BME280;66087;53.126;17.960;2023-07-13T06:38:38;100542.48;;;22.37;62.23
75555;BME280;66087;53.126;17.960;2023-07-13T06:41:07;100540.48;;;22.51;62.22
75555;BME280;66087;53.126;17.960;2023-07-13T06:43:34;100535.72;;;22.61;61.51
75555;BME280;66087;53.126;17.960;2023-07-13T06:46:02;100536.47;;;22.66;61.27
75555;BME280;66087;53.126;17.960;2023-07-13T06:48:30;100539.91;;;22.75;60.80
75555;BME280;66087;53.126;17.960;2023-07-13T06:50:56;100551.13;;;22.86;60.62
75555;BME280;66087;53.126;17.960;2023-07-13T06:53:24;100541.11;;;22.92;60.08
75555;BME280;66087;53.126;17.960;2023-07-13T06:55:51;100551.77;;;23.12;59.86
75555;BME280;66087;53.126;17.960;2023-07-13T06:58:21;100557.02;;;23.37;59.90
75555;BME280;66087;53.126;17.960;2023-07-13T07:00:51;100545.80;;;23.59;59.23
75555;BME280;66087;53.126;17.960;2023-07-13T07:03:23;100559.11;;;23.91;58.74
75555;BME280;66087;53.126;17.960;2023-07-13T07:05:50;100557.42;;;24.12;58.57
75555;BME280;66087;53.126;17.960;2023-07-13T07:08:17;100552.00;;;24.17;55.63
75555;BME280;66087;53.126;17.960;2023-07-13T07:10:43;100561.92;;;24.12;55.66
75555;BME280;66087;53.126;17.960;2023-07-13T07:13:11;100568.77;;;24.15;56.07
75555;BME280;66087;53.126;17.960;2023-07-13T07:15:37;100574.73;;;24.26;56.27
75555;BME280;66087;53.126;17.960;2023-07-13T07:18:04;100573.10;;;24.39;55.66
75555;BME280;66087;53.126;17.960;2023-07-13T07:20:31;100569.93;;;24.43;55.10
75555;BME280;66087;53.126;17.960;2023-07-13T07:23:23;100563.70;;;24.46;54.96
75555;BME280;66087;53.126;17.960;2023-07-13T07:25:49;100566.89;;;24.50;53.71
75555;BME280;66087;53.126;17.960;2023-07-13T07:28:18;100566.03;;;24.55;53.21
75555;BME280;66087;53.126;17.960;2023-07-13T07:30:45;100569.80;;;24.70;52.36
75555;BME280;66087;53.126;17.960;2023-07-13T07:33:13;100566.70;;;24.81;50.93
75555;BME280;66087;53.126;17.960;2023-07-13T07:35:43;100564.54;;;24.76;51.65
75555;BME280;66087;53.126;17.960;2023-07-13T07:38:12;100562.36;;;24.82;52.59
75555;BME280;66087;53.126;17.960;2023-07-13T07:40:40;100567.77;;;24.90;52.77
75555;BME280;66087;53.126;17.960;2023-07-13T07:43:08;100556.80;;;24.88;52.72
75555;BME280;66087;53.126;17.960;2023-07-13T07:45:35;100562.60;;;24.97;52.18
75555;BME280;66087;53.126;17.960;2023-07-13T07:48:04;100561.75;;;24.93;51.17
75555;BME280;66087;53.126;17.960;2023-07-13T07:50:31;100564.79;;;24.90;51.61
75555;BME280;66087;53.126;17.960;2023-07-13T07:53:00;100571.35;;;24.96;51.86
75555;BME280;66087;53.126;17.960;2023-07-13T07:55:33;100568.45;;;25.01;50.96
75555;BME280;66087;53.126;17.960;2023-07-13T07:58:00;100575.27;;;25.07;51.02
75555;BME280;66087;53.126;17.960;2023-07-13T08:00:26;100573.12;;;25.12;50.66
75555;BME280;66087;53.126;17.960;2023-07-13T08:03:04;100577.40;;;25.18;49.87
75555;BME280;66087;53.126;17.960;2023-07-13T08:05:36;100578.51;;;25.18;49.93
75555;BME280;66087;53.126;17.960;2023-07-13T08:08:03;100579.88;;;25.17;49.84
75555;BME280;66087;53.126;17.960;2023-07-13T08:10:30;100581.25;;;25.14;49.62
75555;BME280;66087;53.126;17.960;2023-07-13T08:12:58;100579.80;;;25.12;49.57
75555;BME280;66087;53.126;17.960;2023-07-13T08:15:25;100575.73;;;25.16;49.42
75555;BME280;66087;53.126;17.960;2023-07-13T08:17:52;100562.69;;;25.15;49.14
75555;BME280;66087;53.126;17.960;2023-07-13T08:20:19;100562.89;;;25.29;48.55
75555;BME280;66087;53.126;17.960;2023-07-13T08:22:48;100561.69;;;25.40;48.73
75555;BME280;66087;53.126;17.960;2023-07-13T08:25:14;100569.27;;;25.55;48.42
75555;BME280;66087;53.126;17.960;2023-07-13T08:27:41;100562.80;;;25.73;47.67
75555;BME280;66087;53.126;17.960;2023-07-13T08:30:08;100558.05;;;25.87;47.16
75555;BME280;66087;53.126;17.960;2023-07-13T08:32:46;100555.58;;;26.06;47.18
75555;BME280;66087;53.126;17.960;2023-07-13T08:35:14;100551.08;;;26.23;46.40
75555;BME280;66087;53.126;17.960;2023-07-13T08:37:42;100552.05;;;26.45;46.44
75555;BME280;66087;53.126;17.960;2023-07-13T08:40:10;100543.15;;;26.64;46.29
75555;BME280;66087;53.126;17.960;2023-07-13T08:42:46;100544.44;;;26.86;44.92
75555;BME280;66087;53.126;17.960;2023-07-13T08:45:34;100543.67;;;27.07;44.39
75555;BME280;66087;53.126;17.960;2023-07-13T08:48:28;100551.73;;;27.07;43.31
75555;BME280;66087;53.126;17.960;2023-07-13T08:51:00;100544.42;;;26.95;43.55
75555;BME280;66087;53.126;17.960;2023-07-13T08:53:38;100555.67;;;26.75;42.58
75555;BME280;66087;53.126;17.960;2023-07-13T08:56:16;100564.61;;;26.46;43.09
75555;BME280;66087;53.126;17.960;2023-07-13T08:58:55;100563.88;;;26.09;43.04
75555;BME280;66087;53.126;17.960;2023-07-13T09:01:29;100567.61;;;25.96;43.63
75555;BME280;66087;53.126;17.960;2023-07-13T09:04:09;100568.39;;;25.95;43.87
75555;BME280;66087;53.126;17.960;2023-07-13T09:09:38;100566.05;;;26.26;43.76
75555;BME280;66087;53.126;17.960;2023-07-13T09:12:17;100566.89;;;26.47;43.75
75555;BME280;66087;53.126;17.960;2023-07-13T09:14:51;100562.37;;;26.58;43.41
75555;BME280;66087;53.126;17.960;2023-07-13T09:17:25;100557.08;;;26.55;43.24
75555;BME280;66087;53.126;17.960;2023-07-13T09:20:00;100555.70;;;26.51;43.04
75555;BME280;66087;53.126;17.960;2023-07-13T09:22:33;100557.37;;;26.68;42.61
75555;BME280;66087;53.126;17.960;2023-07-13T09:25:30;100550.54;;;26.77;41.61
75555;BME280;66087;53.126;17.960;2023-07-13T09:28:12;100560.88;;;26.97;42.00
75555;BME280;66087;53.126;17.960;2023-07-13T09:30:56;100561.90;;;27.05;40.87
75555;BME280;66087;53.126;17.960;2023-07-13T09:33:30;100561.52;;;27.08;39.94
75555;BME280;66087;53.126;17.960;2023-07-13T09:35:59;100562.36;;;27.15;39.99
75555;BME280;66087;53.126;17.960;2023-07-13T09:38:28;100563.12;;;27.19;38.53
75555;BME280;66087;53.126;17.960;2023-07-13T09:41:17;100559.64;;;27.26;39.40
75555;BME280;66087;53.126;17.960;2023-07-13T09:44:07;100563.66;;;27.45;39.00
75555;BME280;66087;53.126;17.960;2023-07-13T09:46:46;100560.74;;;27.67;38.71
75555;BME280;66087;53.126;17.960;2023-07-13T09:49:13;100557.77;;;27.76;38.22
75555;BME280;66087;53.126;17.960;2023-07-13T09:51:45;100549.70;;;27.82;38.32
75555;BME280;66087;53.126;17.960;2023-07-13T09:54:21;100553.80;;;27.90;38.21
75555;BME280;66087;53.126;17.960;2023-07-13T09:56:55;100547.35;;;27.96;38.24
75555;BME280;66087;53.126;17.960;2023-07-13T09:59:28;100543.67;;;28.08;37.88
75555;BME280;66087;53.126;17.960;2023-07-13T10:01:57;100543.36;;;28.13;37.93
75555;BME280;66087;53.126;17.960;2023-07-13T10:04:32;100542.05;;;28.00;36.77
75555;BME280;66087;53.126;17.960;2023-07-13T10:07:08;100542.80;;;27.76;36.98
75555;BME280;66087;53.126;17.960;2023-07-13T10:09:36;100539.15;;;27.60;37.27
75555;BME280;66087;53.126;17.960;2023-07-13T10:12:14;100543.98;;;27.77;37.23
75555;BME280;66087;53.126;17.960;2023-07-13T10:14:43;100543.80;;;28.02;36.59
75555;BME280;66087;53.126;17.960;2023-07-13T10:17:14;100540.34;;;28.18;36.04
75555;BME280;66087;53.126;17.960;2023-07-13T10:19:42;100540.02;;;28.36;36.17
75555;BME280;66087;53.126;17.960;2023-07-13T10:22:44;100549.16;;;28.48;35.22
75555;BME280;66087;53.126;17.960;2023-07-13T10:25:20;100554.05;;;28.39;34.13
75555;BME280;66087;53.126;17.960;2023-07-13T10:27:51;100545.26;;;28.24;34.91
75555;BME280;66087;53.126;17.960;2023-07-13T10:30:44;100545.95;;;28.20;34.67
75555;BME280;66087;53.126;17.960;2023-07-13T10:33:13;100545.14;;;28.09;33.71
75555;BME280;66087;53.126;17.960;2023-07-13T10:35:43;100542.75;;;27.98;34.06
75555;BME280;66087;53.126;17.960;2023-07-13T10:38:19;100546.05;;;27.96;33.85
75555;BME280;66087;53.126;17.960;2023-07-13T10:41:01;100544.91;;;28.03;33.78
75555;BME280;66087;53.126;17.960;2023-07-13T10:43:36;100536.30;;;28.15;33.82
75555;BME280;66087;53.126;17.960;2023-07-13T10:46:07;100538.02;;;28.32;33.58
75555;BME280;66087;53.126;17.960;2023-07-13T10:48:36;100545.55;;;28.45;33.11
75555;BME280;66087;53.126;17.960;2023-07-13T10:51:05;100551.31;;;28.60;33.31
75555;BME280;66087;53.126;17.960;2023-07-13T10:53:38;100543.14;;;28.73;32.81
75555;BME280;66087;53.126;17.960;2023-07-13T10:56:28;100543.33;;;28.80;32.86
75555;BME280;66087;53.126;17.960;2023-07-13T10:59:06;100539.55;;;28.72;32.71
75555;BME280;66087;53.126;17.960;2023-07-13T11:01:40;100541.82;;;28.61;32.82
75555;BME280;66087;53.126;17.960;2023-07-13T11:04:13;100542.98;;;28.44;32.85
75555;BME280;66087;53.126;17.960;2023-07-13T11:06:42;100547.95;;;28.24;32.93
75555;BME280;66087;53.126;17.960;2023-07-13T11:09:32;100545.10;;;28.15;33.20
75555;BME280;66087;53.126;17.960;2023-07-13T11:12:06;100543.95;;;28.14;32.91
75555;BME280;66087;53.126;17.960;2023-07-13T11:14:41;100546.11;;;28.22;33.15
75555;BME280;66087;53.126;17.960;2023-07-13T11:17:37;100548.03;;;28.26;33.24
75555;BME280;66087;53.126;17.960;2023-07-13T11:20:24;100544.17;;;28.58;32.93
75555;BME280;66087;53.126;17.960;2023-07-13T11:23:19;100543.54;;;28.67;32.35
75555;BME280;66087;53.126;17.960;2023-07-13T11:25:47;100540.48;;;28.50;33.01
75555;BME280;66087;53.126;17.960;2023-07-13T11:28:23;100544.50;;;28.42;33.49
75555;BME280;66087;53.126;17.960;2023-07-13T11:31:03;100543.38;;;28.30;33.62
75555;BME280;66087;53.126;17.960;2023-07-13T11:33:51;100549.48;;;28.08;33.55
75555;BME280;66087;53.126;17.960;2023-07-13T11:36:23;100550.30;;;27.89;33.63
75555;BME280;66087;53.126;17.960;2023-07-13T11:38:59;100553.36;;;27.82;33.67
75555;BME280;66087;53.126;17.960;2023-07-13T11:41:31;100554.10;;;27.67;33.76
75555;BME280;66087;53.126;17.960;2023-07-13T11:44:12;100553.59;;;27.58;34.13
75555;BME280;66087;53.126;17.960;2023-07-13T11:46:45;100558.71;;;27.64;34.42
75555;BME280;66087;53.126;17.960;2023-07-13T11:49:17;100560.69;;;27.68;34.62
75555;BME280;66087;53.126;17.960;2023-07-13T11:51:45;100555.36;;;27.78;34.97
75555;BME280;66087;53.126;17.960;2023-07-13T11:54:26;100553.59;;;27.91;34.64
75555;BME280;66087;53.126;17.960;2023-07-13T11:56:56;100547.58;;;28.10;34.88
75555;BME280;66087;53.126;17.960;2023-07-13T11:59:27;100554.16;;;28.42;34.57
75555;BME280;66087;53.126;17.960;2023-07-13T12:01:57;100547.97;;;28.89;34.30
75555;BME280;66087;53.126;17.960;2023-07-13T12:04:31;100545.73;;;29.17;34.24
75555;BME280;66087;53.126;17.960;2023-07-13T12:07:17;100542.11;;;29.23;33.81
75555;BME280;66087;53.126;17.960;2023-07-13T12:09:46;100536.91;;;29.50;33.64
75555;BME280;66087;53.126;17.960;2023-07-13T12:12:17;100537.30;;;29.78;33.07
75555;BME280;66087;53.126;17.960;2023-07-13T12:14:52;100533.33;;;29.97;32.57
75555;BME280;66087;53.126;17.960;2023-07-13T12:17:22;100535.64;;;30.28;32.26
75555;BME280;66087;53.126;17.960;2023-07-13T12:19:52;100539.27;;;30.53;31.87
75555;BME280;66087;53.126;17.960;2023-07-13T12:22:20;100535.81;;;30.68;31.28
75555;BME280;66087;53.126;17.960;2023-07-13T12:24:51;100529.66;;;31.07;31.48
75555;BME280;66087;53.126;17.960;2023-07-13T12:27:26;100534.51;;;31.34;30.21
75555;BME280;66087;53.126;17.960;2023-07-13T12:30:01;100532.65;;;30.99;30.32
75555;BME280;66087;53.126;17.960;2023-07-13T12:32:28;100533.17;;;30.71;30.73
75555;BME280;66087;53.126;17.960;2023-07-13T12:35:15;100543.15;;;30.38;30.53
75555;BME280;66087;53.126;17.960;2023-07-13T12:37:46;100535.33;;;29.86;30.57
75555;BME280;66087;53.126;17.960;2023-07-13T12:40:20;100536.61;;;29.45;31.00
75555;BME280;66087;53.126;17.960;2023-07-13T12:42:50;100527.25;;;29.20;31.22
75555;BME280;66087;53.126;17.960;2023-07-13T12:45:23;100529.24;;;29.04;31.49
75555;BME280;66087;53.126;17.960;2023-07-13T12:47:56;100537.30;;;28.81;31.53
75555;BME280;66087;53.126;17.960;2023-07-13T12:50:36;100536.04;;;28.46;31.93
75555;BME280;66087;53.126;17.960;2023-07-13T12:53:13;100536.25;;;28.25;32.44
75555;BME280;66087;53.126;17.960;2023-07-13T12:55:43;100544.16;;;28.20;32.45
75555;BME280;66087;53.126;17.960;2023-07-13T12:58:17;100536.09;;;28.06;32.60
75555;BME280;66087;53.126;17.960;2023-07-13T13:00:50;100543.23;;;28.03;32.53
75555;BME280;66087;53.126;17.960;2023-07-13T13:03:28;100547.88;;;28.06;32.53